createdAt,value
2018-11-10T00:00:11.552Z,95181
2018-11-10T00:01:13.711Z,95182.6
2018-11-10T00:02:16.133Z,95179.3
2018-11-10T00:03:18.564Z,95180.3
2018-11-10T00:04:20.893Z,95178.6
2018-11-10T00:05:23.527Z,95175.6
2018-11-10T00:06:25.692Z,95175.3
2018-11-10T00:07:27.851Z,95174.6
2018-11-10T00:08:30.606Z,95176.7
2018-11-10T00:09:32.820Z,95173.5
2018-11-10T00:10:34.958Z,95172.6
2018-11-10T00:11:36.854Z,95164.6
2018-11-10T00:12:39.278Z,95164.5
2018-11-10T00:13:41.181Z,95160.4
2018-11-10T00:14:43.606Z,95155
2018-11-10T00:15:45.494Z,95150.4
2018-11-10T00:16:47.918Z,95151.6
2018-11-10T00:17:50.360Z,95147.8
2018-11-10T00:18:52.225Z,95149.5
2018-11-10T00:19:54.385Z,95149.9
2018-11-10T00:20:56.262Z,95142.6
2018-11-10T00:21:58.705Z,95146.2
2018-11-10T00:23:01.139Z,95141.4
2018-11-10T00:24:03.024Z,95146.7
2018-11-10T00:25:05.190Z,95147.3
2018-11-10T00:26:07.620Z,95142.1
2018-11-10T00:27:10.050Z,95148
2018-11-10T00:28:11.940Z,95150.7
2018-11-10T00:29:14.372Z,95156.5
2018-11-10T00:30:16.260Z,95158.5
2018-11-10T00:31:18.157Z,95156.1
2018-11-10T00:32:20.022Z,95158.8
2018-11-10T00:33:21.895Z,95155.9
2018-11-10T00:34:23.778Z,95155.5
2018-11-10T00:35:25.450Z,95150.5
2018-11-10T00:36:27.580Z,95148.6
2018-11-10T00:37:30.006Z,95147.8
2018-11-10T00:38:32.170Z,95148.8
2018-11-10T00:39:34.328Z,95143.9
2018-11-10T00:40:36.486Z,95139.6
2018-11-10T00:41:38.618Z,95143.3
2018-11-10T00:42:40.494Z,95139.5
2018-11-10T00:43:42.921Z,95141.9
2018-11-10T00:44:44.785Z,95141.2
2018-11-10T00:45:46.950Z,95141
2018-11-10T00:46:48.848Z,95141.7
2018-11-10T00:47:50.994Z,95142.6
2018-11-10T00:48:52.586Z,95143
2018-11-10T00:49:54.755Z,95141.8
2018-11-10T00:50:56.354Z,95140.8
2018-11-10T00:51:58.796Z,95140
2018-11-10T00:53:01.233Z,95134.6
2018-11-10T00:54:03.088Z,95135.1
2018-11-10T00:55:05.247Z,95136
2018-11-10T00:56:06.851Z,95132.6
2018-11-10T00:57:08.726Z,95130.5
2018-11-10T00:58:10.602Z,95131.1
2018-11-10T00:59:12.782Z,95129.7
2018-11-10T01:00:14.936Z,95126
2018-11-10T01:01:17.107Z,95128
2018-11-10T01:02:18.969Z,95126.5
2018-11-10T01:03:21.406Z,95130.3
2018-11-10T01:04:23.270Z,95128.4
2018-11-10T01:05:25.741Z,95128.3
2018-11-10T01:06:27.919Z,95130
2018-11-10T01:07:29.561Z,95131.5
2018-11-10T01:08:31.990Z,95130.5
2018-11-10T01:09:33.635Z,95132.2
2018-11-10T01:10:35.788Z,95126.3
2018-11-10T01:11:38.250Z,95126.4
2018-11-10T01:12:40.417Z,95125.1
2018-11-10T01:13:42.299Z,95126.4
2018-11-10T01:14:44.172Z,95121.9
2018-11-10T01:15:46.595Z,95123.2
2018-11-10T01:16:48.224Z,95118.4
2018-11-10T01:17:50.122Z,95114.1
2018-11-10T01:18:52.546Z,95113.3
2018-11-10T01:19:54.719Z,95114.9
2018-11-10T01:20:56.859Z,95113.1
2018-11-10T01:21:59.284Z,95106.2
2018-11-10T01:23:01.709Z,95115.1
2018-11-10T01:24:03.857Z,95107.9
2018-11-10T01:25:05.735Z,95111.2
2018-11-10T01:26:07.894Z,95105.2
2018-11-10T01:27:10.323Z,95103.7
2018-11-10T01:28:12.468Z,95108.3
2018-11-10T01:29:14.889Z,95112.3
2018-11-10T01:30:17.038Z,95114.8
2018-11-10T01:31:19.468Z,95110.7
2018-11-10T01:32:21.895Z,95111.4
2018-11-10T01:33:24.067Z,95109.3
2018-11-10T01:34:25.677Z,95108.1
2018-11-10T01:35:28.104Z,95098.5
2018-11-10T01:36:30.256Z,95105.2
2018-11-10T01:37:32.698Z,95097.1
2018-11-10T01:38:35.119Z,95098.4
2018-11-10T01:39:37.298Z,95097.6
2018-11-10T01:40:39.466Z,95104.2
2018-11-10T01:41:41.621Z,95099.3
2018-11-10T01:42:44.048Z,95097.6
2018-11-10T01:43:46.475Z,95098.8
2018-11-10T01:44:48.351Z,95094.3
2018-11-10T01:45:50.512Z,95099.5
2018-11-10T01:46:52.760Z,95097.2
2018-11-10T01:47:55.280Z,95101.2
2018-11-10T01:48:57.708Z,95100.1
2018-11-10T01:50:00.141Z,95100.6
2018-11-10T01:51:02.024Z,95103.2
2018-11-10T01:52:04.175Z,95096.9
2018-11-10T01:53:06.328Z,95098.6
2018-11-10T01:54:08.490Z,95093.5
2018-11-10T01:55:10.379Z,95098.3
2018-11-10T01:56:12.580Z,95096.7
2018-11-10T01:57:14.465Z,95095.4
2018-11-10T01:58:16.356Z,95093.7
2018-11-10T01:59:18.555Z,95094.1
2018-11-10T02:00:20.736Z,95097.5
2018-11-10T02:01:22.888Z,95101.9
2018-11-10T02:02:24.482Z,95104.7
2018-11-10T02:03:26.906Z,95106.5
2018-11-10T02:04:28.770Z,95108.4
2018-11-10T02:05:30.930Z,95106.3
2018-11-10T02:06:33.276Z,95107
2018-11-10T02:07:35.515Z,95104.2
2018-11-10T02:08:37.126Z,95103.9
2018-11-10T02:09:39.289Z,95106.9
2018-11-10T02:10:41.420Z,95107.5
2018-11-10T02:11:43.847Z,95108
2018-11-10T02:12:45.737Z,95108.2
2018-11-10T02:13:48.210Z,95105.9
2018-11-10T02:14:49.761Z,95106.5
2018-11-10T02:15:51.915Z,95109.4
2018-11-10T02:16:54.071Z,95105.6
2018-11-10T02:17:55.960Z,95103.8
2018-11-10T02:18:58.397Z,95103
2018-11-10T02:20:00.824Z,95095.7
2018-11-10T02:21:02.983Z,95097.3
2018-11-10T02:22:04.608Z,95092.2
2018-11-10T02:23:07.052Z,95090.2
2018-11-10T02:24:08.947Z,95090.6
2018-11-10T02:25:11.100Z,95096
2018-11-10T02:26:13.265Z,95092.9
2018-11-10T02:27:15.697Z,95095.3
2018-11-10T02:28:17.839Z,95094.9
2018-11-10T02:29:19.983Z,95096.2
2018-11-10T02:30:22.147Z,95092.6
2018-11-10T02:31:24.569Z,95092.1
2018-11-10T02:32:26.715Z,95087.6
2018-11-10T02:33:29.150Z,95082.1
2018-11-10T02:34:31.027Z,95083.8
2018-11-10T02:35:33.459Z,95076.8
2018-11-10T02:36:35.604Z,95077
2018-11-10T02:37:38.040Z,95073.6
2018-11-10T02:38:40.843Z,95072.8
2018-11-10T02:39:43.029Z,95073.6
2018-11-10T02:40:44.908Z,95068.9
2018-11-10T02:41:46.247Z,95068.6
2018-11-10T02:42:48.664Z,95067.1
2018-11-10T02:43:50.830Z,95068.7
2018-11-10T02:44:52.989Z,95070
2018-11-10T02:45:55.143Z,95064.5
2018-11-10T02:46:57.305Z,95063.2
2018-11-10T02:47:59.465Z,95064
2018-11-10T02:49:01.897Z,95061.6
2018-11-10T02:50:04.049Z,95061
2018-11-10T02:51:06.479Z,95066.4
2018-11-10T02:52:08.640Z,95062.7
2018-11-10T02:53:10.505Z,95064
2018-11-10T02:54:12.676Z,95062.5
2018-11-10T02:55:15.114Z,95066.9
2018-11-10T02:56:17.283Z,95063
2018-11-10T02:57:19.731Z,95068
2018-11-10T02:58:21.846Z,95067.1
2018-11-10T02:59:24.000Z,95070.2
2018-11-10T03:00:26.157Z,95071.3
2018-11-10T03:01:27.732Z,95069
2018-11-10T03:02:29.894Z,95064.5
2018-11-10T03:03:32.342Z,95065.4
2018-11-10T03:04:34.488Z,95064
2018-11-10T03:05:36.635Z,95064.1
2018-11-10T03:06:38.529Z,95057.8
2018-11-10T03:07:40.687Z,95059.3
2018-11-10T03:08:43.119Z,95062.4
2018-11-10T03:09:45.008Z,95059
2018-11-10T03:10:47.859Z,95054.7
2018-11-10T03:11:50.017Z,95056.9
2018-11-10T03:12:52.480Z,95053.1
2018-11-10T03:13:54.905Z,95056.6
2018-11-10T03:14:57.045Z,95060.6
2018-11-10T03:15:58.966Z,95055.5
2018-11-10T03:17:00.836Z,95059.3
2018-11-10T03:18:03.268Z,95061.1
2018-11-10T03:19:05.427Z,95060.3
2018-11-10T03:20:07.847Z,95060.4
2018-11-10T03:21:09.999Z,95057
2018-11-10T03:22:12.427Z,95060.3
2018-11-10T03:23:14.588Z,95057
2018-11-10T03:24:16.495Z,95053.6
2018-11-10T03:25:18.630Z,95051.6
2018-11-10T03:26:20.779Z,95051.5
2018-11-10T03:27:22.919Z,95047.6
2018-11-10T03:28:25.349Z,95050.5
2018-11-10T03:29:27.789Z,95049.5
2018-11-10T03:30:29.948Z,95047.2
2018-11-10T03:31:32.116Z,95051.5
2018-11-10T03:32:34.268Z,95047.5
2018-11-10T03:33:35.888Z,95048.7
2018-11-10T03:34:38.306Z,95047.2
2018-11-10T03:35:40.174Z,95045.3
2018-11-10T03:36:42.344Z,95048.4
2018-11-10T03:37:44.519Z,95047.7
2018-11-10T03:38:46.941Z,95049.6
2018-11-10T03:39:48.818Z,95049
2018-11-10T03:40:50.969Z,95046.9
2018-11-10T03:41:53.129Z,95048
2018-11-10T03:42:55.002Z,95054.4
2018-11-10T03:43:56.627Z,95044
2018-11-10T03:44:58.788Z,95048.3
2018-11-10T03:46:00.927Z,95046.4
2018-11-10T03:47:02.515Z,95047.4
2018-11-10T03:48:04.991Z,95045.5
2018-11-10T03:49:06.836Z,95044.8
2018-11-10T03:50:08.710Z,95045
2018-11-10T03:51:10.567Z,95043.4
2018-11-10T03:52:12.723Z,95044.9
2018-11-10T03:53:14.893Z,95043.8
2018-11-10T03:54:17.062Z,95042.4
2018-11-10T03:55:19.493Z,95039.7
2018-11-10T03:56:21.942Z,95048.4
2018-11-10T03:57:24.096Z,95047.5
2018-11-10T03:58:25.146Z,95048.3
2018-11-10T03:59:27.030Z,95046
2018-11-10T04:00:29.194Z,95047.2
2018-11-10T04:01:31.088Z,95048.2
2018-11-10T04:02:33.520Z,95045.2
2018-11-10T04:03:35.953Z,95040
2018-11-10T04:04:38.383Z,95039.2
2018-11-10T04:05:40.538Z,95039.6
2018-11-10T04:06:42.706Z,95038
2018-11-10T04:07:44.865Z,95036.3
2018-11-10T04:08:47.283Z,95034.1
2018-11-10T04:09:49.714Z,95036.8
2018-11-10T04:10:51.875Z,95033
2018-11-10T04:11:54.293Z,95036.7
2018-11-10T04:12:56.716Z,95033.9
2018-11-10T04:13:58.868Z,95034.3
2018-11-10T04:15:01.298Z,95029.3
2018-11-10T04:16:03.729Z,95029.6
2018-11-10T04:17:05.320Z,95033.8
2018-11-10T04:18:07.478Z,95036.5
2018-11-10T04:19:09.908Z,95032.8
2018-11-10T04:20:12.073Z,95032
2018-11-10T04:21:14.218Z,95030.7
2018-11-10T04:22:16.665Z,95029.9
2018-11-10T04:23:18.837Z,95025.5
2018-11-10T04:24:20.988Z,95026.8
2018-11-10T04:25:23.144Z,95028.5
2018-11-10T04:26:25.295Z,95031.2
2018-11-10T04:27:27.457Z,95030.2
2018-11-10T04:28:29.330Z,95031.7
2018-11-10T04:29:31.755Z,95028.2
2018-11-10T04:30:34.179Z,95034.6
2018-11-10T04:31:36.628Z,95029.6
2018-11-10T04:32:39.059Z,95036.3
2018-11-10T04:33:41.492Z,95028.9
2018-11-10T04:34:43.348Z,95034.2
2018-11-10T04:35:45.516Z,95034.7
2018-11-10T04:36:47.403Z,95031.5
2018-11-10T04:37:49.828Z,95029.9
2018-11-10T04:38:51.986Z,95025.8
2018-11-10T04:39:54.150Z,95030.5
2018-11-10T04:40:55.731Z,95029.2
2018-11-10T04:41:57.602Z,95026.1
2018-11-10T04:42:59.488Z,95025.7
2018-11-10T04:44:01.957Z,95025.9
2018-11-10T04:45:04.111Z,95023.7
2018-11-10T04:46:06.543Z,95025.2
2018-11-10T04:47:08.675Z,95025.6
2018-11-10T04:48:10.840Z,95025.8
2018-11-10T04:49:13.001Z,95027.1
2018-11-10T04:50:15.129Z,95023.3
2018-11-10T04:51:17.288Z,95019.1
2018-11-10T04:52:19.177Z,95019.9
2018-11-10T04:53:21.071Z,95019.3
2018-11-10T04:54:23.197Z,95015.6
2018-11-10T04:55:25.091Z,95014.5
2018-11-10T04:56:27.249Z,95014
2018-11-10T04:57:29.677Z,95018.2
2018-11-10T04:58:31.564Z,95017.8
2018-11-10T04:59:33.992Z,95016.4
2018-11-10T05:00:36.134Z,95022.5
2018-11-10T05:01:38.842Z,95019.4
2018-11-10T05:02:40.706Z,95017.3
2018-11-10T05:03:42.316Z,95016.2
2018-11-10T05:04:44.748Z,95014.7
2018-11-10T05:05:46.337Z,95016.1
2018-11-10T05:06:47.920Z,95018.3
2018-11-10T05:07:50.383Z,95020.1
2018-11-10T05:08:52.258Z,95015
2018-11-10T05:09:54.413Z,95016.6
2018-11-10T05:10:56.568Z,95019.1
2018-11-10T05:11:58.738Z,95020.7
2018-11-10T05:13:00.888Z,95022.3
2018-11-10T05:14:03.327Z,95022.5
2018-11-10T05:15:05.749Z,95022.5
2018-11-10T05:16:08.180Z,95020.8
2018-11-10T05:17:09.766Z,95017.1
2018-11-10T05:18:11.922Z,95023.1
2018-11-10T05:19:14.089Z,95015.4
2018-11-10T05:20:16.243Z,95014.4
2018-11-10T05:21:18.675Z,95007.7
2018-11-10T05:22:21.104Z,95009.5
2018-11-10T05:23:23.542Z,95009
2018-11-10T05:24:25.688Z,95010.2
2018-11-10T05:25:27.577Z,95011.1
2018-11-10T05:26:29.501Z,95012.8
2018-11-10T05:27:31.369Z,95011.9
2018-11-10T05:28:33.535Z,95015.8
2018-11-10T05:29:36.279Z,95015
2018-11-10T05:30:38.446Z,95016.3
2018-11-10T05:31:40.879Z,95013.2
2018-11-10T05:32:43.014Z,95016.1
2018-11-10T05:33:45.442Z,95015
2018-11-10T05:34:47.302Z,95007.4
2018-11-10T05:35:49.736Z,95005.8
2018-11-10T05:36:52.166Z,95007.6
2018-11-10T05:37:54.332Z,95004.9
2018-11-10T05:38:56.758Z,95009.8
2018-11-10T05:39:58.928Z,95002.4
2018-11-10T05:41:01.064Z,95007
2018-11-10T05:42:03.489Z,95011.6
2018-11-10T05:43:05.370Z,95008.5
2018-11-10T05:44:07.238Z,95011.9
2018-11-10T05:45:09.402Z,95007.6
2018-11-10T05:46:11.537Z,95007.5
2018-11-10T05:47:13.481Z,95012.7
2018-11-10T05:48:15.924Z,95008.6
2018-11-10T05:49:18.149Z,95012.3
2018-11-10T05:50:20.036Z,95008
2018-11-10T05:51:22.187Z,95007.2
2018-11-10T05:52:24.614Z,95006.8
2018-11-10T05:53:26.220Z,95009.3
2018-11-10T05:54:28.379Z,95010.1
2018-11-10T05:55:30.812Z,95010.2
2018-11-10T05:56:32.725Z,95008.9
2018-11-10T05:57:34.606Z,95010.6
2018-11-10T05:58:37.038Z,95012.5
2018-11-10T05:59:39.193Z,95011
2018-11-10T06:00:41.640Z,95009.6
2018-11-10T06:01:43.790Z,95007.5
2018-11-10T06:02:45.950Z,95009.1
2018-11-10T06:03:48.094Z,95006
2018-11-10T06:04:49.964Z,95008.3
2018-11-10T06:05:51.816Z,95007.1
2018-11-10T06:06:54.238Z,95006
2018-11-10T06:07:56.667Z,95004.7
2018-11-10T06:08:59.136Z,95005.9
2018-11-10T06:10:02.643Z,95005.9
2018-11-10T06:11:04.956Z,95005.7
2018-11-10T06:12:06.894Z,95006.4
2018-11-10T06:13:09.307Z,95000.3
2018-11-10T06:14:11.725Z,95004.2
2018-11-10T06:15:14.162Z,95000.9
2018-11-10T06:16:16.426Z,95001.8
2018-11-10T06:17:18.859Z,95000.5
2018-11-10T06:18:21.047Z,94999.6
2018-11-10T06:19:22.669Z,94998.3
2018-11-10T06:20:24.321Z,95001.3
2018-11-10T06:21:26.760Z,95001.2
2018-11-10T06:22:29.189Z,95001.8
2018-11-10T06:23:31.341Z,94994.6
2018-11-10T06:24:33.498Z,94990.2
2018-11-10T06:25:35.667Z,94995
2018-11-10T06:26:38.109Z,94992.5
2018-11-10T06:27:39.998Z,94994.8
2018-11-10T06:28:41.913Z,94995
2018-11-10T06:29:44.075Z,94994.8
2018-11-10T06:30:46.246Z,94997
2018-11-10T06:31:47.886Z,94995.3
2018-11-10T06:32:50.346Z,95000.1
2018-11-10T06:33:52.795Z,95002.2
2018-11-10T06:34:54.400Z,95003.9
2018-11-10T06:35:56.303Z,95001.9
2018-11-10T06:36:58.217Z,95000.9
2018-11-10T06:38:00.691Z,94999.2
2018-11-10T06:39:03.129Z,95003.6
2018-11-10T06:40:05.321Z,95008.1
2018-11-10T06:41:08.052Z,95007.3
2018-11-10T06:42:09.909Z,95005.9
2018-11-10T06:43:12.332Z,95002.9
2018-11-10T06:44:14.777Z,95001.9
2018-11-10T06:45:17.229Z,94994.1
2018-11-10T06:46:19.690Z,94995.6
2018-11-10T06:47:21.853Z,94992.8
2018-11-10T06:48:24.299Z,94988.4
2018-11-10T06:49:26.472Z,94991.6
2018-11-10T06:50:28.631Z,94994
2018-11-10T06:51:31.081Z,94991.1
2018-11-10T06:52:33.237Z,94990
2018-11-10T06:53:35.408Z,94989.7
2018-11-10T06:54:37.829Z,94991.9
2018-11-10T06:55:39.713Z,94990.4
2018-11-10T06:56:41.870Z,94991.8
2018-11-10T06:57:44.297Z,94991.3
2018-11-10T06:58:46.730Z,94991.6
2018-11-10T06:59:48.878Z,94990.7
2018-11-10T07:00:51.035Z,94993.5
2018-11-10T07:01:53.502Z,94991.6
2018-11-10T07:02:55.401Z,94997.2
2018-11-10T07:03:57.869Z,94993
2018-11-10T07:05:00.308Z,94991.1
2018-11-10T07:06:02.464Z,94990.2
2018-11-10T07:07:04.350Z,94990.1
2018-11-10T07:08:06.484Z,94988.9
2018-11-10T07:09:08.649Z,94987.8
2018-11-10T07:10:11.071Z,94990.8
2018-11-10T07:11:13.508Z,94990.5
2018-11-10T07:12:15.677Z,94988
2018-11-10T07:13:17.559Z,94987.8
2018-11-10T07:14:19.685Z,94992
2018-11-10T07:15:22.129Z,94995.5
2018-11-10T07:16:24.562Z,94994.1
2018-11-10T07:17:27.314Z,94990
2018-11-10T07:18:29.849Z,94992.7
2018-11-10T07:19:31.731Z,94994
2018-11-10T07:20:33.897Z,94994.4
2018-11-10T07:21:36.318Z,94991.3
2018-11-10T07:22:38.772Z,94991.5
2018-11-10T07:23:40.921Z,94996.8
2018-11-10T07:24:43.318Z,94994.5
2018-11-10T07:25:45.239Z,94992.1
2018-11-10T07:26:47.108Z,94992
2018-11-10T07:27:49.273Z,94988.7
2018-11-10T07:28:51.700Z,94991.8
2018-11-10T07:29:53.831Z,94994.5
2018-11-10T07:30:56.265Z,94997.6
2018-11-10T07:31:58.917Z,94997.3
2018-11-10T07:33:01.596Z,94999.4
2018-11-10T07:34:03.736Z,94999.1
2018-11-10T07:35:05.615Z,94996.4
2018-11-10T07:36:07.494Z,94997.2
2018-11-10T07:37:09.954Z,95000
2018-11-10T07:38:12.368Z,95004.7
2018-11-10T07:39:14.810Z,94997.3
2018-11-10T07:40:17.261Z,94996.8
2018-11-10T07:41:19.407Z,94997.5
2018-11-10T07:42:21.569Z,94997.7
2018-11-10T07:43:23.735Z,95000.1
2018-11-10T07:44:25.877Z,94998.8
2018-11-10T07:45:27.769Z,95001
2018-11-10T07:46:30.206Z,95006.3
2018-11-10T07:47:32.096Z,94999.1
2018-11-10T07:48:34.531Z,95001.6
2018-11-10T07:49:36.706Z,94999.2
2018-11-10T07:50:39.131Z,94998.5
2018-11-10T07:51:41.563Z,94992.3
2018-11-10T07:52:44.010Z,94989.6
2018-11-10T07:53:46.165Z,94990.5
2018-11-10T07:54:48.311Z,94987
2018-11-10T07:55:50.680Z,94990
2018-11-10T07:56:53.257Z,94985
2018-11-10T07:57:55.690Z,94986.3
2018-11-10T07:58:58.125Z,94989.4
2018-11-10T08:00:00.597Z,94989.2
2018-11-10T08:01:02.762Z,94985.3
2018-11-10T08:02:05.264Z,94987.9
2018-11-10T08:03:07.772Z,94983.6
2018-11-10T08:04:09.740Z,94985.1
2018-11-10T08:05:11.939Z,94980.4
2018-11-10T08:06:13.816Z,94977.9
2018-11-10T08:07:15.971Z,94986.3
2018-11-10T08:08:18.399Z,94979.6
2018-11-10T08:09:20.833Z,94974.7
2018-11-10T08:10:22.717Z,94974
2018-11-10T08:11:24.881Z,94972.2
2018-11-10T08:12:26.497Z,94977.1
2018-11-10T08:13:28.647Z,94972.4
2018-11-10T08:14:30.811Z,94971
2018-11-10T08:15:33.335Z,94971.4
2018-11-10T08:16:35.499Z,94975.1
2018-11-10T08:17:37.428Z,94977.1
2018-11-10T08:18:40.375Z,94978.6
2018-11-10T08:19:42.622Z,94974.1
2018-11-10T08:20:45.073Z,94968.4
2018-11-10T08:21:47.509Z,94969.2
2018-11-10T08:22:49.392Z,94971.4
2018-11-10T08:23:50.982Z,94968.3
2018-11-10T08:24:53.660Z,94971.4
2018-11-10T08:25:56.173Z,94970.4
2018-11-10T08:26:58.355Z,94967.4
2018-11-10T08:28:00.260Z,94968.3
2018-11-10T08:29:02.480Z,94966.8
2018-11-10T08:30:04.618Z,94973.8
2018-11-10T08:31:07.032Z,94973.6
2018-11-10T08:32:09.344Z,94974.7
2018-11-10T08:33:11.240Z,94973.6
2018-11-10T08:34:13.137Z,94973.6
2018-11-10T08:35:15.329Z,94973.5
2018-11-10T08:36:17.224Z,94975.3
2018-11-10T08:37:19.411Z,94972.7
2018-11-10T08:38:21.840Z,94966.6
2018-11-10T08:39:24.627Z,94968.9
2018-11-10T08:40:26.218Z,94969.4
2018-11-10T08:41:28.369Z,94973.8
2018-11-10T08:42:30.794Z,94971.5
2018-11-10T08:43:32.932Z,94968.9
2018-11-10T08:44:34.787Z,94968.8
2018-11-10T08:45:36.930Z,94966.7
2018-11-10T08:46:39.090Z,94966
2018-11-10T08:47:40.670Z,94961.4
2018-11-10T08:48:42.530Z,94962.3
2018-11-10T08:49:45.301Z,94963.1
2018-11-10T08:50:47.458Z,94963.4
2018-11-10T08:51:49.895Z,94960.8
2018-11-10T08:52:51.786Z,94958.1
2018-11-10T08:53:53.951Z,94958.3
2018-11-10T08:54:55.533Z,94961.9
2018-11-10T08:55:57.687Z,94962.9
2018-11-10T08:57:00.141Z,94963
2018-11-10T08:58:02.112Z,94964.8
2018-11-10T08:59:04.490Z,94965.8
2018-11-10T09:00:07.023Z,94967.1
2018-11-10T09:01:09.192Z,94964.5
2018-11-10T09:02:11.097Z,94966.2
2018-11-10T09:03:12.702Z,94966.3
2018-11-10T09:04:14.590Z,94964
2018-11-10T09:05:17.034Z,94969.9
2018-11-10T09:06:19.197Z,94965.6
2018-11-10T09:07:21.644Z,94971.5
2018-11-10T09:08:23.808Z,94969.3
2018-11-10T09:09:25.970Z,94970
2018-11-10T09:10:28.400Z,94966.6
2018-11-10T09:11:30.846Z,94967.9
2018-11-10T09:12:33.035Z,94966.7
2018-11-10T09:13:35.158Z,94965.5
2018-11-10T09:14:37.322Z,94967.7
2018-11-10T09:15:39.798Z,94964.4
2018-11-10T09:16:41.981Z,94968.7
2018-11-10T09:17:44.451Z,94962
2018-11-10T09:18:47.066Z,94964
2018-11-10T09:19:49.492Z,94962.8
2018-11-10T09:20:51.355Z,94962.9
2018-11-10T09:21:53.521Z,94953.6
2018-11-10T09:22:55.658Z,94954.6
2018-11-10T09:23:58.103Z,94955.4
2018-11-10T09:25:00.280Z,94956.8
2018-11-10T09:26:02.423Z,94957
2018-11-10T09:27:04.585Z,94958.9
2018-11-10T09:28:07.024Z,94956.7
2018-11-10T09:29:08.913Z,94957.9
2018-11-10T09:30:10.798Z,94961.9
2018-11-10T09:31:12.969Z,94962.1
2018-11-10T09:32:14.859Z,94958.5
2018-11-10T09:33:16.995Z,94954.7
2018-11-10T09:34:19.156Z,94959.1
2018-11-10T09:35:21.613Z,94957.9
2018-11-10T09:36:23.644Z,94953.7
2018-11-10T09:37:25.457Z,94956.5
2018-11-10T09:38:27.878Z,94954.9
2018-11-10T09:39:30.051Z,94953.4
2018-11-10T09:40:32.188Z,94955.6
2018-11-10T09:41:34.339Z,94955.2
2018-11-10T09:42:36.903Z,94953
2018-11-10T09:43:39.896Z,94951.6
2018-11-10T09:44:42.327Z,94947.2
2018-11-10T09:45:44.481Z,94951.1
2018-11-10T09:46:46.082Z,94953.1
2018-11-10T09:47:47.946Z,94949.2
2018-11-10T09:48:50.109Z,94947.4
2018-11-10T09:49:52.108Z,94946.5
2018-11-10T09:50:54.650Z,94944.6
2018-11-10T09:51:57.291Z,94944.1
2018-11-10T09:52:59.476Z,94945.8
2018-11-10T09:54:01.652Z,94946.7
2018-11-10T09:55:03.554Z,94949.6
2018-11-10T09:56:05.724Z,94946.7
2018-11-10T09:57:07.866Z,94946.4
2018-11-10T09:58:10.037Z,94947.5
2018-11-10T09:59:12.477Z,94947.7
2018-11-10T10:00:14.652Z,94945
2018-11-10T10:01:18.157Z,94943.5
2018-11-10T10:02:21.514Z,94940.9
2018-11-10T10:03:24.434Z,94942.1
2018-11-10T10:04:26.593Z,94937.8
2018-11-10T10:05:28.791Z,94938.1
2018-11-10T10:06:30.940Z,94937.5
2018-11-10T10:07:33.094Z,94937.2
2018-11-10T10:08:35.627Z,94935.9
2018-11-10T10:09:37.819Z,94933.2
2018-11-10T10:10:40.254Z,94938.5
2018-11-10T10:11:42.679Z,94934.6
2018-11-10T10:12:44.830Z,94935.6
2018-11-10T10:13:47.270Z,94931.1
2018-11-10T10:14:49.439Z,94935
2018-11-10T10:15:52.059Z,94939.3
2018-11-10T10:16:53.638Z,94930.2
2018-11-10T10:17:55.246Z,94932.8
2018-11-10T10:18:57.396Z,94927.7
2018-11-10T10:19:59.574Z,94926.7
2018-11-10T10:21:02.003Z,94930.2
2018-11-10T10:22:03.325Z,94925.1
2018-11-10T10:23:05.768Z,94926.7
2018-11-10T10:24:07.926Z,94924.3
2018-11-10T10:25:09.813Z,94919.5
2018-11-10T10:26:12.253Z,94918
2018-11-10T10:27:14.143Z,94912.4
2018-11-10T10:28:16.437Z,94908.3
2018-11-10T10:29:18.710Z,94906
2018-11-10T10:30:20.858Z,94900.9
2018-11-10T10:31:22.454Z,94899
2018-11-10T10:32:24.327Z,94896.6
2018-11-10T10:33:26.201Z,94897.5
2018-11-10T10:34:29.207Z,94894.9
2018-11-10T10:35:32.515Z,94892.1
2018-11-10T10:36:35.114Z,94896
2018-11-10T10:37:37.008Z,94894
2018-11-10T10:38:38.879Z,94893.4
2018-11-10T10:39:41.040Z,94890.1
2018-11-10T10:40:42.953Z,94892.1
2018-11-10T10:41:45.126Z,94884.6
2018-11-10T10:42:47.788Z,94888.6
2018-11-10T10:43:49.990Z,94883.8
2018-11-10T10:44:52.416Z,94886
2018-11-10T10:45:54.850Z,94886.7
2018-11-10T10:46:56.772Z,94888.7
2018-11-10T10:47:59.193Z,94880.4
2018-11-10T10:49:01.768Z,94884.4
2018-11-10T10:50:04.013Z,94878.8
2018-11-10T10:51:05.903Z,94881.6
2018-11-10T10:52:08.054Z,94875.6
2018-11-10T10:53:10.490Z,94874.7
2018-11-10T10:54:12.359Z,94875.8
2018-11-10T10:55:14.248Z,94873.4
2018-11-10T10:56:16.436Z,94869.8
2018-11-10T10:57:18.963Z,94869.8
2018-11-10T10:58:21.388Z,94867.6
2018-11-10T10:59:23.541Z,94860.1
2018-11-10T11:00:25.430Z,94864.2
2018-11-10T11:01:27.593Z,94867.5
2018-11-10T11:02:30.030Z,94862.8
2018-11-10T11:03:32.955Z,94868.3
2018-11-10T11:04:35.122Z,94867.5
2018-11-10T11:05:36.987Z,94863.3
2018-11-10T11:06:38.863Z,94863.1
2018-11-10T11:07:41.293Z,94864.1
2018-11-10T11:08:43.733Z,94857.3
2018-11-10T11:09:46.466Z,94860.2
2018-11-10T11:10:49.308Z,94859.7
2018-11-10T11:11:51.468Z,94852.8
2018-11-10T11:12:53.900Z,94853
2018-11-10T11:13:56.067Z,94853.6
2018-11-10T11:14:58.171Z,94850.7
2018-11-10T11:16:00.685Z,94853.5
2018-11-10T11:17:03.126Z,94851
2018-11-10T11:18:05.044Z,94846.4
2018-11-10T11:19:06.931Z,94853.3
2018-11-10T11:20:09.367Z,94850.4
2018-11-10T11:21:11.818Z,94847.3
2018-11-10T11:22:14.250Z,94846
2018-11-10T11:23:16.104Z,94840.7
2018-11-10T11:24:18.279Z,94838.3
2018-11-10T11:25:20.152Z,94841.1
2018-11-10T11:26:22.037Z,94834.8
2018-11-10T11:27:23.908Z,94836.2
2018-11-10T11:28:26.337Z,94833
2018-11-10T11:29:29.135Z,94835.8
2018-11-10T11:30:31.506Z,94838.3
2018-11-10T11:31:33.676Z,94837.2
2018-11-10T11:32:35.842Z,94835.6
2018-11-10T11:33:37.788Z,94836.5
2018-11-10T11:34:39.668Z,94839.4
2018-11-10T11:35:42.107Z,94835.9
2018-11-10T11:36:43.995Z,94836.8
2018-11-10T11:37:46.439Z,94838.9
2018-11-10T11:38:48.346Z,94834.3
2018-11-10T11:39:50.778Z,94836.3
2018-11-10T11:40:53.001Z,94834.9
2018-11-10T11:41:55.278Z,94832
2018-11-10T11:42:57.194Z,94828.6
2018-11-10T11:43:59.055Z,94824.2
2018-11-10T11:45:01.231Z,94828.1
2018-11-10T11:46:03.662Z,94822.9
2018-11-10T11:47:05.523Z,94822.1
2018-11-10T11:48:06.879Z,94817.7
2018-11-10T11:49:09.318Z,94816.3
2018-11-10T11:50:10.908Z,94818.6
2018-11-10T11:51:12.840Z,94819
2018-11-10T11:52:15.291Z,94817.5
2018-11-10T11:53:17.730Z,94814.5
2018-11-10T11:54:19.881Z,94815
2018-11-10T11:55:22.320Z,94817
2018-11-10T11:56:24.475Z,94817.5
2018-11-10T11:57:27.009Z,94817.6
2018-11-10T11:58:29.761Z,94821.5
2018-11-10T11:59:31.652Z,94817.8
2018-11-10T12:00:33.817Z,94818.1
2018-11-10T12:01:36.269Z,94818.3
2018-11-10T12:02:38.428Z,94812.6
2018-11-10T12:03:40.593Z,94818
2018-11-10T12:04:42.896Z,94818
2018-11-10T12:05:45.113Z,94819.3
2018-11-10T12:06:47.279Z,94815.4
2018-11-10T12:07:49.717Z,94817.8
2018-11-10T12:08:52.143Z,94818
2018-11-10T12:09:54.269Z,94816
2018-11-10T12:10:55.859Z,94809
2018-11-10T12:11:58.048Z,94813.5
2018-11-10T12:13:00.479Z,94815.7
2018-11-10T12:14:02.918Z,94811.1
2018-11-10T12:15:05.213Z,94814.5
2018-11-10T12:16:07.369Z,94817.3
2018-11-10T12:17:09.267Z,94812.6
2018-11-10T12:18:11.429Z,94816.6
2018-11-10T12:19:13.609Z,94810
2018-11-10T12:20:16.040Z,94811.9
2018-11-10T12:21:18.482Z,94810.3
2018-11-10T12:22:20.426Z,94812.5
2018-11-10T12:23:22.579Z,94806.2
2018-11-10T12:24:24.729Z,94809.9
2018-11-10T12:25:27.188Z,94810.3
2018-11-10T12:26:29.622Z,94810.2
2018-11-10T12:27:32.044Z,94812.4
2018-11-10T12:28:33.661Z,94809.6
2018-11-10T12:29:35.819Z,94807
2018-11-10T12:30:37.989Z,94808.9
2018-11-10T12:31:40.624Z,94808.8
2018-11-10T12:32:42.209Z,94810.6
2018-11-10T12:33:43.812Z,94808.5
2018-11-10T12:34:46.263Z,94808.8
2018-11-10T12:35:48.714Z,94814.6
2018-11-10T12:36:50.907Z,94813
2018-11-10T12:37:52.811Z,94813.7